createdAt,value
2018-05-21T17:18:48.172Z,77
2018-05-21T17:19:50.606Z,78
2018-05-21T17:20:52.655Z,78
2018-05-21T17:21:54.692Z,78
2018-05-21T17:22:56.729Z,75
2018-05-21T17:23:59.039Z,75
2018-05-21T17:25:01.098Z,75
2018-05-21T17:26:03.125Z,75
2018-05-21T17:27:05.144Z,73
2018-05-21T17:28:07.163Z,72
2018-05-21T17:29:09.568Z,70
2018-05-21T17:30:11.590Z,67
2018-05-21T17:31:13.618Z,64
2018-05-21T17:32:15.638Z,63
2018-05-21T17:33:17.650Z,64
2018-05-21T17:34:20.065Z,63
2018-05-21T17:35:22.083Z,59
2018-05-21T17:36:24.106Z,56
2018-05-21T17:37:26.500Z,54
2018-05-21T17:38:28.527Z,54
2018-05-21T17:39:30.550Z,54
2018-05-21T17:40:32.850Z,53
2018-05-21T17:41:34.864Z,52
2018-05-21T17:42:36.886Z,51
2018-05-21T17:43:38.901Z,50
2018-05-21T17:44:40.923Z,50
2018-05-21T17:45:42.942Z,49
2018-05-21T17:46:44.962Z,49
2018-05-21T17:47:46.967Z,47
2018-05-21T17:48:48.984Z,46
2018-05-21T17:49:51.002Z,47
2018-05-21T17:50:53.021Z,44
2018-05-21T17:51:55.037Z,43
2018-05-21T17:52:57.433Z,43
2018-05-21T17:53:59.455Z,43
2018-05-21T17:55:01.478Z,42
2018-05-21T17:56:03.784Z,41
2018-05-21T17:57:05.782Z,40
2018-05-21T17:58:07.797Z,40
2018-05-21T17:59:09.820Z,38
2018-05-21T18:00:11.837Z,37
2018-05-21T18:01:14.158Z,36
2018-05-21T18:02:16.174Z,36
2018-05-21T18:03:18.993Z,35
2018-05-21T18:04:21.281Z,34
2018-05-21T18:05:23.287Z,33
2018-05-21T18:06:25.596Z,33
2018-05-21T18:07:27.615Z,32
2018-05-21T18:08:29.628Z,31
2018-05-21T18:09:31.636Z,31
2018-05-21T18:10:33.650Z,30
2018-05-21T18:11:35.659Z,30
2018-05-21T18:12:37.678Z,29
2018-05-21T18:13:39.688Z,27
2018-05-21T18:14:41.796Z,24
2018-05-21T18:15:43.712Z,20
2018-05-21T18:16:45.724Z,18
2018-05-21T18:17:47.735Z,17
2018-05-21T18:18:49.850Z,17
2018-05-21T18:19:51.761Z,17
2018-05-21T18:20:53.769Z,17
2018-05-21T18:21:55.774Z,17
2018-05-21T18:22:57.783Z,16
2018-05-21T18:23:59.799Z,16
2018-05-21T18:25:01.814Z,16
2018-05-21T18:26:04.143Z,15
2018-05-21T18:27:06.149Z,15
2018-05-21T18:28:08.144Z,14
2018-05-21T18:29:10.155Z,14
2018-05-21T18:30:12.224Z,14
2018-05-21T18:31:14.548Z,13
2018-05-21T18:32:16.561Z,13
2018-05-21T18:33:18.568Z,13
2018-05-21T18:34:20.564Z,12
2018-05-21T18:35:22.573Z,12
2018-05-21T18:36:24.576Z,12
2018-05-21T18:37:26.594Z,11
2018-05-21T18:38:28.598Z,11
2018-05-21T18:39:30.897Z,11
2018-05-21T18:40:32.904Z,10
2018-05-21T18:41:34.909Z,10
2018-05-21T18:42:37.416Z,10
2018-05-21T18:43:39.342Z,9
2018-05-21T18:44:41.346Z,9
2018-05-21T18:45:43.364Z,9
2018-05-21T18:46:45.364Z,8
2018-05-21T18:47:47.373Z,8
2018-05-21T18:48:49.370Z,8
2018-05-21T18:49:51.947Z,8
2018-05-21T18:50:54.252Z,7
2018-05-21T18:51:56.924Z,7
2018-05-21T18:52:58.925Z,7
2018-05-21T18:54:01.016Z,7
2018-05-21T18:55:02.974Z,6
2018-05-21T18:56:04.940Z,6
2018-05-21T18:57:06.945Z,6
2018-05-21T18:58:09.232Z,5
2018-05-21T18:59:11.241Z,5
2018-05-21T19:00:13.301Z,5
2018-05-21T19:01:15.251Z,5
2018-05-21T19:02:17.267Z,4
2018-05-21T19:03:19.934Z,4
2018-05-21T19:04:21.940Z,4
2018-05-21T19:05:24.326Z,4
2018-05-21T19:06:26.331Z,3
2018-05-21T19:07:28.338Z,3
2018-05-21T19:08:30.332Z,3
2018-05-21T19:09:32.337Z,3
2018-05-21T19:10:34.349Z,3
2018-05-21T19:11:36.348Z,2
2018-05-21T19:12:38.349Z,2
2018-05-21T19:13:40.625Z,2
2018-05-21T19:14:42.913Z,2
2018-05-21T19:15:44.908Z,2
2018-05-21T19:16:46.914Z,2
2018-05-21T19:17:48.918Z,1
2018-05-21T19:18:50.920Z,1
2018-05-21T19:19:52.939Z,1
2018-05-21T19:20:55.237Z,1
2018-05-21T19:21:57.248Z,1
2018-05-21T19:22:59.253Z,1
2018-05-21T19:24:01.264Z,1
2018-05-21T19:25:03.539Z,1
2018-05-21T19:26:05.623Z,0
2018-05-21T19:27:07.637Z,0
2018-05-21T19:28:09.670Z,0
2018-05-21T19:29:11.663Z,0
2018-05-21T19:30:13.673Z,0
2018-05-21T19:31:15.832Z,0
2018-05-21T19:32:18.210Z,0
2018-05-21T19:33:20.608Z,0
2018-05-21T19:34:22.626Z,0
2018-05-21T19:35:24.631Z,0
2018-05-21T19:36:26.633Z,0
2018-05-21T19:37:28.636Z,0
2018-05-21T19:38:31.080Z,0
2018-05-21T19:39:33.084Z,0
2018-05-21T19:40:35.107Z,0
2018-05-21T19:41:37.152Z,0
2018-05-21T19:42:39.156Z,0
2018-05-21T19:43:41.211Z,0
2018-05-21T19:44:43.211Z,0
2018-05-21T19:45:45.211Z,0
2018-05-21T19:46:47.216Z,0
2018-05-21T19:47:49.514Z,0
2018-05-21T19:48:51.836Z,0
2018-05-21T19:49:53.847Z,0
2018-05-21T19:50:55.943Z,0
2018-05-21T19:51:57.938Z,0
2018-05-21T19:52:59.939Z,0
2018-05-21T19:54:01.942Z,0
2018-05-21T19:55:03.938Z,0
2018-05-21T19:56:05.939Z,0
2018-05-21T19:57:07.944Z,0
2018-05-21T19:58:10.218Z,0
2018-05-21T19:59:12.535Z,0
2018-05-21T20:00:14.524Z,0
2018-05-21T20:01:16.537Z,0
2018-05-21T20:02:18.546Z,0
2018-05-21T20:03:20.552Z,0
2018-05-21T20:04:22.581Z,0
2018-05-21T20:05:24.580Z,0
2018-05-21T20:06:26.581Z,0
2018-05-21T20:07:28.592Z,0
2018-05-21T20:08:31.031Z,0
2018-05-21T20:09:33.079Z,0
2018-05-21T20:10:35.073Z,0
2018-05-21T20:11:37.068Z,0
2018-05-21T20:12:39.172Z,0
2018-05-21T20:13:41.554Z,0
2018-05-21T20:14:44.125Z,0
2018-05-21T20:15:46.130Z,0
2018-05-21T20:16:48.483Z,0
2018-05-21T20:17:50.502Z,0
2018-05-21T20:18:52.794Z,0
2018-05-21T20:19:55.644Z,0
2018-05-21T20:20:57.648Z,0
2018-05-21T20:21:59.684Z,0
2018-05-21T20:23:01.687Z,0
2018-05-21T20:24:03.695Z,0
2018-05-21T20:25:05.694Z,0
2018-05-21T20:26:08.096Z,0
2018-05-21T20:27:10.093Z,0
2018-05-21T20:28:12.106Z,0
2018-05-21T20:29:14.106Z,0
2018-05-21T20:30:16.100Z,0
2018-05-21T20:31:18.113Z,0
2018-05-21T20:32:20.397Z,0
2018-05-21T20:33:22.388Z,0
2018-05-21T20:34:24.389Z,0
2018-05-21T20:35:26.388Z,0
2018-05-21T20:36:28.388Z,0
2018-05-21T20:37:30.388Z,0
2018-05-21T20:38:32.427Z,0
2018-05-21T20:39:34.394Z,0
2018-05-21T20:40:36.387Z,0
2018-05-21T20:41:38.388Z,0
2018-05-21T20:42:40.688Z,0
2018-05-21T20:43:42.682Z,0
2018-05-21T20:44:44.678Z,0
2018-05-21T20:45:46.961Z,0
2018-05-21T20:46:48.963Z,0
2018-05-21T20:47:50.963Z,0
2018-05-21T20:48:52.955Z,0
2018-05-21T20:49:54.960Z,0
2018-05-21T20:50:57.240Z,0
2018-05-21T20:51:59.230Z,0
2018-05-21T20:53:01.231Z,0
2018-05-21T20:54:03.229Z,0
2018-05-21T20:55:05.241Z,0
2018-05-21T20:56:07.584Z,0
2018-05-21T20:57:09.571Z,0
2018-05-21T20:58:11.584Z,0
2018-05-21T20:59:13.575Z,0
2018-05-21T21:00:15.573Z,0
2018-05-21T21:01:17.909Z,0
2018-05-21T21:02:20.156Z,0
2018-05-21T21:03:22.433Z,0
2018-05-21T21:04:24.721Z,0
2018-05-21T21:05:27.000Z,0
2018-05-21T21:06:29.009Z,0
2018-05-21T21:07:31.010Z,0
2018-05-21T21:08:33.310Z,0
2018-05-21T21:09:35.312Z,0
2018-05-21T21:10:38.088Z,0
2018-05-21T21:11:40.345Z,0
2018-05-21T21:12:42.624Z,0
2018-05-21T21:13:44.622Z,0
2018-05-21T21:14:46.625Z,0
2018-05-21T21:15:48.618Z,0
2018-05-21T21:16:50.616Z,0
2018-05-21T21:17:52.618Z,0
2018-05-21T21:18:54.617Z,0
2018-05-21T21:19:56.614Z,0
2018-05-21T21:20:58.603Z,0
2018-05-21T21:22:00.602Z,0
2018-05-21T21:23:02.605Z,0
2018-05-21T21:24:04.904Z,0
2018-05-21T21:25:07.194Z,0
2018-05-21T21:26:09.194Z,0
2018-05-21T21:27:11.577Z,0
2018-05-21T21:28:13.565Z,0
2018-05-21T21:29:15.852Z,0
2018-05-21T21:30:17.856Z,0
2018-05-21T21:31:20.126Z,0
2018-05-21T21:32:22.139Z,0
2018-05-21T21:33:24.137Z,0
2018-05-21T21:34:26.415Z,0
2018-05-21T21:35:28.408Z,0
2018-05-21T21:36:30.695Z,0
2018-05-21T21:37:32.993Z,0
2018-05-21T21:38:34.992Z,0
2018-05-21T21:39:36.979Z,0
2018-05-21T21:40:38.977Z,0
2018-05-21T21:41:40.974Z,0
2018-05-21T21:42:42.972Z,0
2018-05-21T21:43:45.641Z,0
2018-05-21T21:44:47.634Z,0
2018-05-21T21:45:49.634Z,0
2018-05-21T21:46:51.650Z,0
2018-05-21T21:47:54.030Z,0
2018-05-21T21:48:56.016Z,0
2018-05-21T21:49:58.009Z,0
2018-05-21T21:51:00.002Z,0
2018-05-21T21:52:02.000Z,0
2018-05-21T21:53:04.270Z,0
2018-05-21T21:54:06.276Z,0
2018-05-21T21:55:08.278Z,0
2018-05-21T21:56:10.263Z,0
2018-05-21T21:57:12.542Z,0
2018-05-21T21:58:14.541Z,0
2018-05-21T21:59:16.535Z,0
2018-05-21T22:00:18.530Z,0
2018-05-21T22:01:20.521Z,0
2018-05-21T22:02:22.522Z,0
2018-05-21T22:03:24.512Z,0
2018-05-21T22:04:26.923Z,0
2018-05-21T22:05:28.926Z,0
2018-05-21T22:06:30.916Z,0
2018-05-21T22:07:33.189Z,0
2018-05-21T22:08:35.190Z,0
2018-05-21T22:09:37.185Z,0
2018-05-21T22:10:39.176Z,0
2018-05-21T22:11:41.175Z,0
2018-05-21T22:12:43.763Z,0
2018-05-21T22:13:45.762Z,0
2018-05-21T22:14:48.046Z,0
2018-05-21T22:15:50.048Z,0
2018-05-21T22:16:52.043Z,0
2018-05-21T22:17:54.034Z,0
2018-05-21T22:18:56.032Z,0
2018-05-21T22:19:58.028Z,0
2018-05-21T22:21:00.414Z,0
2018-05-21T22:22:02.414Z,0
2018-05-21T22:23:04.417Z,0
2018-05-21T22:24:06.420Z,0
2018-05-21T22:25:08.409Z,0
2018-05-21T22:26:10.789Z,0
2018-05-21T22:27:12.780Z,0
2018-05-21T22:28:15.055Z,0
2018-05-21T22:29:17.142Z,0
2018-05-21T22:30:19.440Z,0
2018-05-21T22:31:21.431Z,0
2018-05-21T22:32:23.430Z,0
2018-05-21T22:33:25.425Z,0
2018-05-21T22:34:27.421Z,0
2018-05-21T22:35:29.418Z,0
2018-05-21T22:36:31.430Z,0
2018-05-21T22:37:33.704Z,0
2018-05-21T22:38:35.697Z,0
2018-05-21T22:39:37.692Z,0
2018-05-21T22:40:39.694Z,0
2018-05-21T22:41:41.695Z,0
2018-05-21T22:42:43.690Z,0
2018-05-21T22:43:45.961Z,0
2018-05-21T22:44:47.958Z,0
2018-05-21T22:45:49.941Z,0
2018-05-21T22:46:51.935Z,0
2018-05-21T22:47:54.231Z,0
2018-05-21T22:48:56.221Z,0
2018-05-21T22:49:58.221Z,0
2018-05-21T22:51:00.977Z,0
2018-05-21T22:52:02.969Z,0
2018-05-21T22:53:04.958Z,0
2018-05-21T22:54:06.957Z,0
2018-05-21T22:55:08.952Z,0
2018-05-21T22:56:10.946Z,0
2018-05-21T22:57:12.937Z,0
2018-05-21T22:58:14.936Z,0
2018-05-21T22:59:17.210Z,0
2018-05-21T23:00:19.215Z,0
2018-05-21T23:01:21.207Z,0
2018-05-21T23:02:23.203Z,0
2018-05-21T23:03:25.191Z,0
2018-05-21T23:04:27.471Z,0
2018-05-21T23:05:29.751Z,0
2018-05-21T23:06:32.123Z,0
2018-05-21T23:07:34.113Z,0
2018-05-21T23:08:36.119Z,0
2018-05-21T23:09:38.102Z,0
2018-05-21T23:10:40.107Z,0
2018-05-21T23:11:42.100Z,0
2018-05-21T23:12:44.100Z,0
2018-05-21T23:13:46.386Z,0
2018-05-21T23:14:48.769Z,0
2018-05-21T23:15:50.768Z,0
2018-05-21T23:16:53.058Z,0
2018-05-21T23:17:55.042Z,0
2018-05-21T23:18:57.047Z,0
2018-05-21T23:19:59.047Z,0
2018-05-21T23:21:01.040Z,0
2018-05-21T23:22:03.018Z,0
2018-05-21T23:23:05.014Z,0
2018-05-21T23:24:07.387Z,0
2018-05-21T23:25:09.380Z,0
2018-05-21T23:26:11.651Z,0
2018-05-21T23:27:13.656Z,0
2018-05-21T23:28:15.645Z,0
2018-05-21T23:29:17.639Z,0
2018-05-21T23:30:19.641Z,0
2018-05-21T23:31:21.938Z,0
2018-05-21T23:32:23.926Z,0
2018-05-21T23:33:25.921Z,0
2018-05-21T23:34:28.191Z,0
2018-05-21T23:35:30.197Z,0
2018-05-21T23:36:32.482Z,0
2018-05-21T23:37:34.777Z,0
2018-05-21T23:38:36.771Z,0
2018-05-21T23:39:39.048Z,0
2018-05-21T23:40:41.433Z,0
2018-05-21T23:41:43.424Z,0
2018-05-21T23:42:45.424Z,0
2018-05-21T23:43:47.413Z,0
2018-05-21T23:44:49.409Z,0
2018-05-21T23:45:51.688Z,0
2018-05-21T23:46:53.679Z,0
2018-05-21T23:47:56.058Z,0
2018-05-21T23:48:58.061Z,0
2018-05-21T23:50:00.046Z,0
2018-05-21T23:51:02.482Z,0
2018-05-21T23:52:04.739Z,0
2018-05-21T23:53:07.014Z,0
2018-05-21T23:54:09.300Z,0
2018-05-21T23:55:11.293Z,0
2018-05-21T23:56:13.287Z,0
2018-05-21T23:57:15.292Z,0
2018-05-21T23:58:17.584Z,0
2018-05-21T23:59:19.583Z,0
